Bookmark and Share
Track history (hours):
 

HS Bizet

Last reported at 2014-Apr-10 15:32 UTC. Time now 2014-Apr-20 13:27 UTC.
Position N 27°31' W 122°03'.
Warning: this ship's position is 9 days out of date.

Length 246 m; draft 9.7 m.

Type: Ship (hazmat cat A). MMSI: 636091349.

NotesDate/timePositionNaut miles runAvg speedWind from/ knotsBaromVisibWave heightAir tempDewpointWater temp
2014-Apr-10 15:32N 27°31' W 122°03'2618.0
2014-Apr-10 14:04N 27°50' W 121°43'918.1
2014-Apr-10 13:33N 27°57' W 121°36'1817.9
2014-Apr-10 12:33N 28°10' W 121°22'1817.8
2014-Apr-10 11:33N 28°23' W 121°09'1817.8
2014-Apr-10 10:33N 28°37' W 120°55'1817.6
2014-Apr-10 09:33N 28°50' W 120°42'1817.6
2014-Apr-10 08:33N 29°03' W 120°28'1817.6
2014-Apr-10 07:33N 29°16' W 120°15'1817.7
2014-Apr-10 06:33N 29°29' W 120°01'1817.8
2014-Apr-10 05:33N 29°42' W 119°47'1817.9
2014-Apr-10 04:33N 29°56' W 119°34'1817.5
2014-Apr-10 03:30N 30°09' W 119°19'1717.6
2014-Apr-10 02:33N 30°21' W 119°06'1917.8
2014-Apr-10 01:30N 30°35' W 118°51'1717.6
2014-Apr-10 00:30N 30°48' W 118°38'1817.5
2014-Apr-09 23:27N 31°02' W 118°24'1617.8
2014-Apr-09 22:33N 31°17' W 118°16'1818.0
2014-Apr-09 21:33N 31°33' W 118°08'1818.1
2014-Apr-09 20:34N 31°50' W 117°59'1817.9
2014-Apr-09 19:34N 32°07' W 117°53'1817.6
2014-Apr-09 18:34N 32°24' W 117°50'1616.1
2014-Apr-09 17:34N 32°40' W 117°48'1312.8
2014-Apr-09 16:33N 32°53' W 117°51'1111.0
2014-Apr-09 15:33N 33°03' W 117°55'1111.0
2014-Apr-09 14:34N 33°13' W 118°02'1111.1
2014-Apr-09 13:33N 33°23' W 118°08'1111.3
2014-Apr-09 12:34N 33°33' W 118°12'10 9.9
2014-Apr-09 11:33N 33°43' W 118°15'3 2.4
2014-Apr-09 10:13N 33°46' W 118°16'0 0.0
2014-Apr-08 11:15N 33°46' W 118°16'0 0.0
2014-Apr-08 10:33N 33°46' W 118°16'0 0.0
2014-Apr-08 09:33N 33°46' W 118°16'0 0.0
2014-Apr-08 08:33N 33°46' W 118°16'0 0.0
2014-Apr-08 07:33N 33°46' W 118°16'0 0.0
2014-Apr-08 01:33N 33°46' W 118°16'0 0.0
2014-Apr-08 00:33N 33°46' W 118°16'0 0.0
2014-Apr-07 23:33N 33°46' W 118°16'0 0.0
2014-Apr-07 22:33N 33°46' W 118°16'0 0.0
2014-Apr-07 21:33N 33°46' W 118°16'0 0.0
2014-Apr-07 20:33N 33°46' W 118°16'0 0.0
2014-Apr-07 19:33N 33°46' W 118°16'0 0.0
2014-Apr-07 17:33N 33°46' W 118°16'0 0.0
2014-Apr-07 16:33N 33°46' W 118°16'0 0.0
2014-Apr-07 15:33N 33°46' W 118°16'0 0.0
2014-Apr-07 14:33N 33°46' W 118°16'0 0.1
2014-Apr-07 13:34N 33°46' W 118°16'4 4.4
2014-Apr-07 12:34N 33°42' W 118°14'7 7.3
2014-Apr-07 11:33N 33°36' W 118°20'1010.4
2014-Apr-07 10:33N 33°41' W 118°31'1010.1
2014-Apr-07 09:34N 33°46' W 118°41'1010.4
2014-Apr-07 08:33N 33°51' W 118°52'1210.2
2014-Apr-07 07:25N 33°57' W 119°04'12017.5
2014-Apr-07 00:33N 34°44' W 121°18'1918.9
2014-Apr-06 23:33N 34°59' W 121°31'1919.2
2014-Apr-06 22:33N 35°15' W 121°45'1919.1
2014-Apr-06 21:33N 35°30' W 121°59'1918.7
2014-Apr-06 20:33N 35°45' W 122°13'1818.2
2014-Apr-06 19:33N 36°00' W 122°26'1817.6
2014-Apr-06 18:33N 36°16' W 122°34'1717.2
2014-Apr-06 17:33N 36°32' W 122°44'1717.4
2014-Apr-06 16:33N 36°47' W 122°53'1615.8
2014-Apr-06 15:33N 37°03' W 122°57'1817.7
2014-Apr-06 14:33N 37°18' W 122°44'1717.4
2014-Apr-06 13:33N 37°35' W 122°44'1313.4
2014-Apr-06 12:33N 37°47' W 122°36'1212.0
2014-Apr-06 11:33N 37°49' W 122°21'1 1.3
2014-Apr-06 10:31N 37°49' W 122°19'0 0.0
2014-Apr-06 09:31N 37°49' W 122°19'0 0.0
2014-Apr-06 08:31N 37°49' W 122°19'0 0.0
2014-Apr-06 07:31N 37°49' W 122°19'0 0.0
2014-Apr-06 06:31N 37°49' W 122°19'0 0.0
2014-Apr-06 05:31N 37°49' W 122°19'0 0.0
2014-Apr-06 04:31N 37°49' W 122°19'0 0.0
2014-Apr-06 03:31N 37°49' W 122°19'0 0.0
2014-Apr-06 02:31N 37°49' W 122°19'0 0.0
2014-Apr-06 01:31N 37°49' W 122°19'0 0.0
2014-Apr-06 00:31N 37°49' W 122°19'0 0.0
2014-Apr-05 23:31N 37°49' W 122°19'0 0.0
2014-Apr-05 22:31N 37°49' W 122°19'0 0.0
2014-Apr-05 21:31N 37°49' W 122°19'0 0.0
2014-Apr-05 20:31N 37°49' W 122°19'0 0.0
2014-Apr-05 19:31N 37°49' W 122°19'0 0.0
2014-Apr-05 18:31N 37°49' W 122°19'0 0.0
2014-Apr-05 17:31N 37°49' W 122°19'0 0.0
2014-Apr-05 16:31N 37°49' W 122°19'0 0.0
2014-Apr-05 15:31N 37°49' W 122°19'0 0.0
2014-Apr-05 14:31N 37°49' W 122°19'0 0.0
2014-Apr-05 13:31N 37°49' W 122°19'2 1.8
2014-Apr-05 12:33N 37°48' W 122°21'9 8.5
2014-Apr-05 11:33N 37°48' W 122°32'1111.3
2014-Apr-05 10:33N 37°42' W 122°44'1111.2
2014-Apr-05 09:33N 37°36' W 122°56'1111.2
2014-Apr-05 08:33N 37°29' W 123°07'1211.4
2014-Apr-05 07:27N 37°19' W 123°17'  

Dump ship's entire track history

sailing weather and tide predictions

HS Bizet — A8MI3 — position and weather